Time;durP1;ratioP1;P1;durP2;ratioP2;P2;SDS_P1;SDS_P2;PMS_P1;PMS_P2;Temp;Humidity;BMP_temperature;BMP_pressure;BME280_temperature;BME280_humidity;BME280_pressure;Samples;Min_cycle;Max_cycle;Signal;HPM_P1;HPM_P2
2021/03/18 00:01:13;;;;;;;10.90;6.17;;;;;;;4.02;73.39;96031.72;5022051;28;20225;-85
2021/03/18 00:03:41;;;;;;;8.17;6.17;;;;;;;3.97;73.62;96021.09;5031794;28;20226;-85
2021/03/18 00:06:08;;;;;;;9.20;5.57;;;;;;;4.00;72.62;96025.13;5027537;28;20218;-85
2021/03/18 00:08:34;;;;;;;8.37;4.90;;;;;;;3.98;73.03;96027.00;5032434;28;20222;-85
2021/03/18 00:11:03;;;;;;;7.10;4.53;;;;;;;3.98;72.46;96017.63;5014593;28;20286;-85
2021/03/18 00:13:30;;;;;;;5.67;4.40;;;;;;;4.01;72.45;96014.00;5011864;28;20231;-84
2021/03/18 00:15:57;;;;;;;5.50;4.47;;;;;;;4.07;72.24;96024.47;5028501;28;20736;-84
2021/03/18 00:18:28;;;;;;;5.80;4.50;;;;;;;4.02;72.10;96016.44;5030942;28;20502;-85
2021/03/18 00:20:54;;;;;;;6.13;4.43;;;;;;;4.00;71.92;96020.84;5030413;28;20229;-82
2021/03/18 00:23:20;;;;;;;5.67;4.70;;;;;;;4.00;72.32;96015.75;5029877;28;20261;-82
2021/03/18 00:25:46;;;;;;;5.30;4.70;;;;;;;4.13;71.63;96026.53;5032117;28;20198;-83
2021/03/18 00:28:15;;;;;;;5.57;4.57;;;;;;;4.05;72.18;96016.16;5031670;28;20219;-84
2021/03/18 00:30:42;;;;;;;5.40;4.40;;;;;;;3.87;72.34;96022.75;5024219;28;20222;-86
2021/03/18 00:33:09;;;;;;;4.80;4.40;;;;;;;3.86;72.37;96016.03;5033050;28;20233;-84
2021/03/18 00:35:35;;;;;;;6.60;5.10;;;;;;;3.75;71.75;96016.13;5015134;28;20290;-82
2021/03/18 00:38:01;;;;;;;5.40;4.80;;;;;;;3.75;72.24;96022.03;5015529;28;20684;-83
2021/03/18 00:40:31;;;;;;;5.80;4.80;;;;;;;3.84;71.66;96017.94;5034959;28;20202;-85
2021/03/18 00:43:00;;;;;;;6.40;5.47;;;;;;;3.78;72.46;96006.50;5022771;28;20231;-84
2021/03/18 00:45:28;;;;;;;4.87;4.30;;;;;;;3.92;71.77;96002.81;5020196;28;20593;-83
2021/03/18 00:47:56;;;;;;;5.50;5.00;;;;;;;3.88;71.88;96008.28;5032577;28;20256;-84
2021/03/18 00:50:27;;;;;;;6.07;4.93;;;;;;;3.84;71.66;96007.75;5033604;28;20225;-83
2021/03/18 00:52:53;;;;;;;5.73;4.63;;;;;;;3.95;71.51;96002.56;5024548;28;20215;-82
2021/03/18 00:55:19;;;;;;;5.43;4.93;;;;;;;3.98;71.71;96001.53;5029468;28;20210;-84
2021/03/18 00:57:45;;;;;;;5.43;4.73;;;;;;;4.11;71.24;96007.22;5033549;28;20288;-85
2021/03/18 01:00:17;;;;;;;5.33;4.53;;;;;;;4.19;70.67;96002.31;5032983;28;20736;-82
2021/03/18 01:02:43;;;;;;;5.53;5.03;;;;;;;4.24;70.43;96007.81;5019969;28;20832;-84
2021/03/18 01:05:13;;;;;;;5.43;4.93;;;;;;;4.25;70.60;96003.50;5028897;28;20230;-82
2021/03/18 01:07:40;;;;;;;6.27;4.80;;;;;;;4.24;70.34;96001.91;5033946;28;20202;-84
2021/03/18 01:10:08;;;;;;;5.70;4.80;;;;;;;4.21;70.32;96002.19;5034182;28;20241;-85
2021/03/18 01:12:35;;;;;;;6.27;5.10;;;;;;;4.11;70.60;95995.28;5029292;28;20226;-83
2021/03/18 01:15:01;;;;;;;5.20;4.47;;;;;;;4.19;70.52;95998.94;5034022;28;20302;-83
2021/03/18 01:17:28;;;;;;;5.50;5.00;;;;;;;4.22;70.33;95991.88;5031142;28;20748;-82
2021/03/18 01:19:55;;;;;;;5.17;4.67;;;;;;;4.25;69.82;95999.22;5031112;28;20198;-84
2021/03/18 01:22:22;;;;;;;5.40;4.57;;;;;;;4.22;70.07;95991.88;5018470;28;20215;-83
2021/03/18 01:24:48;;;;;;;4.83;4.33;;;;;;;4.08;69.77;95995.53;5032580;28;20217;-84
2021/03/18 01:27:14;;;;;;;6.27;5.03;;;;;;;4.01;70.20;95993.63;5017133;28;20292;-82
2021/03/18 01:29:40;;;;;;;5.57;4.83;;;;;;;3.92;70.56;95992.63;5014864;28;20238;-83
2021/03/18 01:32:06;;;;;;;6.03;5.27;;;;;;;3.89;70.23;95997.16;5018742;28;20222;-85
2021/03/18 01:34:32;;;;;;;4.87;4.37;;;;;;;3.82;70.41;95994.31;5033581;28;20222;-83
2021/03/18 01:36:58;;;;;;;5.13;4.40;;;;;;;3.75;70.24;95990.66;5032958;28;20233;-82
2021/03/18 01:39:25;;;;;;;7.10;5.03;;;;;;;3.85;70.16;95983.88;5027984;28;20218;-83
2021/03/18 01:41:51;;;;;;;6.17;4.97;;;;;;;3.81;70.08;95988.44;5031465;28;20230;-82
2021/03/18 01:44:17;;;;;;;5.90;5.10;;;;;;;3.67;70.00;95987.91;5032439;28;20276;-82
2021/03/18 01:46:43;;;;;;;6.17;5.17;;;;;;;3.71;70.33;95992.63;5033864;28;20225;-83
2021/03/18 01:49:09;;;;;;;7.87;5.63;;;;;;;3.71;70.07;95996.91;5032486;28;20226;-85
2021/03/18 01:51:35;;;;;;;6.80;5.37;;;;;;;3.81;70.15;95993.53;5032516;28;20229;-85
2021/03/18 01:54:01;;;;;;;8.03;5.70;;;;;;;3.87;69.60;95988.84;5025269;28;20222;-83
2021/03/18 01:56:28;;;;;;;6.63;5.37;;;;;;;3.88;69.29;95993.81;5019088;28;20225;-85
2021/03/18 01:58:54;;;;;;;7.27;5.97;;;;;;;3.83;68.93;95988.31;5033492;28;20191;-86
2021/03/18 02:01:20;;;;;;;8.23;6.20;;;;;;;3.80;69.23;95986.81;5034684;28;20206;-84
2021/03/18 02:03:46;;;;;;;8.23;5.97;;;;;;;3.84;69.08;95989.91;5032461;28;20214;-82
2021/03/18 02:06:12;;;;;;;8.30;6.23;;;;;;;3.91;69.27;95990.22;5032170;28;20233;-82
2021/03/18 02:08:38;;;;;;;7.47;6.03;;;;;;;3.87;68.65;95984.56;5024840;28;20219;-80
2021/03/18 02:11:05;;;;;;;7.93;6.13;;;;;;;3.89;68.17;95984.44;5022287;28;20202;-81
2021/03/18 02:13:32;;;;;;;8.10;5.83;;;;;;;3.80;68.08;95980.91;5033419;28;20222;-84
2021/03/18 02:16:02;;;;;;;7.27;5.73;;;;;;;3.54;68.81;95979.66;5032122;28;20717;-81
2021/03/18 02:18:37;;;;;;;8.43;6.30;;;;;;;3.50;69.58;95984.19;5013650;28;20238;-82
2021/03/18 02:22:02;;;;;;;8.97;5.70;;;;;;;3.58;69.38;95978.47;5013219;28;20218;-81
2021/03/18 02:24:42;;;;;;;9.80;6.40;;;;;;;3.68;68.59;95977.59;5009880;28;20253;-85
2021/03/18 02:27:41;;;;;;;8.77;5.90;;;;;;;3.59;68.25;95977.56;5020886;28;20288;-81
2021/03/18 02:30:46;;;;;;;8.67;6.10;;;;;;;3.56;69.09;95976.06;5027588;28;20234;-84
2021/03/18 02:33:41;;;;;;;7.33;5.80;;;;;;;3.52;69.14;95982.31;5013354;28;20234;-82
2021/03/18 02:36:11;;;;;;;8.90;6.30;;;;;;;3.56;69.10;95986.25;5025056;28;20230;-82
2021/03/18 02:38:40;;;;;;;7.70;6.17;;;;;;;3.58;68.77;95978.47;5012954;28;20230;-82
2021/03/18 02:41:10;;;;;;;7.53;6.07;;;;;;;3.57;68.69;95982.75;5016963;28;20205;-82
2021/03/18 02:43:42;;;;;;;9.87;6.23;;;;;;;3.46;69.27;95978.53;5014281;28;20215;-83
2021/03/18 02:46:09;;;;;;;7.70;6.37;;;;;;;3.53;69.26;95993.31;5012572;28;20233;-84
2021/03/18 02:48:38;;;;;;;6.30;5.57;;;;;;;3.50;69.40;95986.72;5022034;28;20276;-82
2021/03/18 02:51:06;;;;;;;7.63;6.17;;;;;;;3.53;68.79;95991.56;5027722;28;20230;-83
2021/03/18 02:53:35;;;;;;;9.33;6.67;;;;;;;3.56;68.86;95993.06;5012016;28;20293;-82
2021/03/18 02:56:05;;;;;;;9.23;6.47;;;;;;;3.44;68.53;95990.59;5028385;28;20222;-82
2021/03/18 02:58:35;;;;;;;8.23;6.53;;;;;;;3.40;68.95;95989.22;5032365;28;20205;-82
2021/03/18 03:01:04;;;;;;;10.10;6.60;;;;;;;3.44;68.50;95990.59;5015602;28;20231;-81
2021/03/18 03:03:32;;;;;;;7.60;6.17;;;;;;;3.45;68.75;95991.41;5011806;28;20748;-81
2021/03/18 03:05:59;;;;;;;8.60;7.03;;;;;;;3.38;68.95;95987.72;5026140;28;20229;-81
2021/03/18 03:08:26;;;;;;;8.73;6.57;;;;;;;3.47;69.17;95994.59;5031183;28;20230;-82
2021/03/18 03:10:55;;;;;;;8.50;6.57;;;;;;;3.57;68.72;95994.69;5031330;28;20202;-85
2021/03/18 03:13:22;;;;;;;9.53;6.40;;;;;;;3.67;68.46;95998.09;5030697;28;20280;-84
2021/03/18 03:15:49;;;;;;;7.83;6.53;;;;;;;3.67;68.04;95998.91;5031814;28;20226;-83
2021/03/18 03:18:16;;;;;;;8.57;6.60;;;;;;;3.62;67.84;96002.78;5032109;28;20701;-82
2021/03/18 03:20:43;;;;;;;10.77;7.63;;;;;;;3.57;67.83;96004.88;5029344;28;20221;-85
2021/03/18 03:23:10;;;;;;;8.87;6.63;;;;;;;3.61;68.10;96001.16;5030077;28;20229;-83
2021/03/18 03:25:38;;;;;;;13.07;7.43;;;;;;;3.67;68.47;96009.09;5035464;28;20190;-82
2021/03/18 03:28:10;;;;;;;10.13;7.47;;;;;;;3.64;67.78;96014.44;5032011;28;20237;-84
2021/03/18 03:30:36;;;;;;;9.73;7.93;;;;;;;3.65;68.38;96021.16;5014811;28;20230;-84
2021/03/18 03:33:03;;;;;;;9.00;7.37;;;;;;;3.61;68.75;96018.97;5021513;28;20229;-82
2021/03/18 03:35:29;;;;;;;9.47;7.57;;;;;;;3.62;68.25;96029.03;5041122;28;20232;-84
2021/03/18 03:37:55;;;;;;;11.83;7.73;;;;;;;3.60;68.17;96025.81;5035215;28;20196;-82
2021/03/18 03:40:21;;;;;;;11.10;7.60;;;;;;;3.52;68.35;96028.13;5035194;28;20238;-84
2021/03/18 03:42:48;;;;;;;10.33;7.90;;;;;;;3.42;68.75;96025.53;5032049;28;20234;-84
2021/03/18 03:45:17;;;;;;;9.37;7.83;;;;;;;3.44;68.40;96026.22;5031626;28;20237;-84
2021/03/18 03:47:44;;;;;;;10.97;8.43;;;;;;;3.38;69.01;96033.53;5026260;28;20233;-86
2021/03/18 03:50:14;;;;;;;10.57;8.03;;;;;;;3.34;69.36;96038.03;5011839;28;20222;-82
2021/03/18 03:52:47;;;;;;;11.00;8.20;;;;;;;3.35;69.05;96031.22;5024802;28;20252;-83
2021/03/18 03:55:21;;;;;;;12.40;8.27;;;;;;;3.40;68.90;96031.66;5031287;28;20237;-84
2021/03/18 03:57:55;;;;;;;12.90;9.10;;;;;;;3.25;68.59;96037.97;5018674;28;20229;-84
2021/03/18 04:00:23;;;;;;;10.70;8.70;;;;;;;3.24;68.86;96037.16;5012426;28;20644;-85
2021/03/18 04:02:51;;;;;;;12.37;9.03;;;;;;;3.20;69.07;96035.78;5016631;28;20241;-84
2021/03/18 04:05:18;;;;;;;12.60;8.57;;;;;;;3.31;69.31;96037.47;5015784;28;20289;-82
2021/03/18 04:07:46;;;;;;;11.70;8.93;;;;;;;3.39;69.22;96035.16;5016024;28;20213;-83
2021/03/18 04:10:15;;;;;;;13.37;8.63;;;;;;;3.35;68.58;96037.13;5015820;28;20226;-82
2021/03/18 04:12:45;;;;;;;12.57;8.47;;;;;;;3.28;69.08;96035.97;5015358;28;20317;-85
2021/03/18 04:15:15;;;;;;;10.90;8.97;;;;;;;3.34;68.76;96038.03;5029874;28;20226;-85
2021/03/18 04:17:46;;;;;;;12.60;8.37;;;;;;;3.25;69.39;96040.53;5035682;28;20597;-84
2021/03/18 04:20:15;;;;;;;10.57;8.73;;;;;;;3.31;69.15;96040.03;5033494;28;20233;-84
2021/03/18 04:22:42;;;;;;;12.97;8.57;;;;;;;3.41;68.74;96035.84;5035637;28;20217;-83
2021/03/18 04:25:12;;;;;;;10.83;8.83;;;;;;;3.46;69.06;96038.84;5022960;28;20218;-83
2021/03/18 04:27:39;;;;;;;12.47;9.10;;;;;;;3.52;68.86;96042.59;5016014;28;20242;-83
2021/03/18 04:30:10;;;;;;;11.20;9.13;;;;;;;3.54;68.63;96043.28;5027383;28;20230;-85
2021/03/18 04:32:38;;;;;;;12.90;9.13;;;;;;;3.49;68.10;96048.75;5035715;28;20222;-84
2021/03/18 04:35:06;;;;;;;12.30;8.93;;;;;;;3.42;68.40;96045.91;5019963;28;20219;-84
2021/03/18 04:37:34;;;;;;;11.00;9.50;;;;;;;3.36;68.70;96043.03;5022645;28;20564;-85
2021/03/18 04:40:01;;;;;;;14.67;9.47;;;;;;;3.27;69.13;96041.22;5034237;28;20234;-84
2021/03/18 04:42:27;;;;;;;14.17;9.60;;;;;;;3.30;69.43;96035.84;5030682;28;20229;-84
2021/03/18 04:44:54;;;;;;;13.50;9.53;;;;;;;3.39;68.90;96038.50;5032821;28;20218;-82
2021/03/18 04:47:22;;;;;;;13.20;9.57;;;;;;;3.30;68.95;96040.94;5030670;28;20276;-82
2021/03/18 04:49:50;;;;;;;13.40;9.77;;;;;;;3.32;69.31;96039.91;5016043;28;20199;-82
2021/03/18 04:52:19;;;;;;;11.13;9.43;;;;;;;3.39;68.98;96046.13;5032458;28;20226;-83
2021/03/18 04:54:46;;;;;;;11.40;8.90;;;;;;;3.34;69.44;96049.97;5034777;28;20230;-83
2021/03/18 04:57:16;;;;;;;11.20;8.90;;;;;;;3.37;69.57;96044.63;5017937;28;20736;-84
2021/03/18 04:59:43;;;;;;;11.43;9.20;;;;;;;3.38;69.44;96046.25;5013885;28;20272;-83
2021/03/18 05:02:10;;;;;;;13.13;9.20;;;;;;;3.39;68.84;96040.22;5016033;28;20242;-85
2021/03/18 05:04:37;;;;;;;12.20;9.63;;;;;;;3.47;68.82;96048.06;5015445;28;20554;-85
2021/03/18 05:07:04;;;;;;;13.77;9.50;;;;;;;3.48;68.97;96035.22;5016293;28;20230;-85
2021/03/18 05:09:31;;;;;;;12.33;9.67;;;;;;;3.43;69.32;96037.34;5021046;28;20616;-82
2021/03/18 05:11:58;;;;;;;15.00;10.13;;;;;;;3.39;69.30;96037.69;5020486;28;20238;-84
2021/03/18 05:14:27;;;;;;;13.03;9.93;;;;;;;3.42;69.44;96033.16;5023411;28;20233;-81
2021/03/18 05:16:53;;;;;;;14.33;10.43;;;;;;;3.48;68.86;96037.75;5034279;28;20261;-85
2021/03/18 05:19:20;;;;;;;13.27;10.23;;;;;;;3.50;68.72;96039.38;5020327;28;20209;-84
2021/03/18 05:21:48;;;;;;;13.60;10.13;;;;;;;3.36;69.17;96043.03;5030897;28;20238;-84
2021/03/18 05:24:15;;;;;;;15.10;10.17;;;;;;;3.37;69.31;96039.53;5016020;28;20234;-80
2021/03/18 05:26:43;;;;;;;13.17;10.50;;;;;;;3.45;68.84;96032.13;5033404;28;20741;-84
2021/03/18 05:29:11;;;;;;;13.00;10.00;;;;;;;3.43;69.00;96034.78;5018322;28;20239;-80
2021/03/18 05:31:38;;;;;;;12.97;10.27;;;;;;;3.51;69.37;96034.16;5013824;28;20214;-84
2021/03/18 05:34:05;;;;;;;14.63;10.47;;;;;;;3.56;69.02;96036.34;5014585;28;20222;-82
2021/03/18 05:36:31;;;;;;;12.17;9.93;;;;;;;3.41;70.20;96041.72;5026876;28;20737;-83
2021/03/18 05:38:58;;;;;;;13.90;10.40;;;;;;;3.36;69.55;96043.03;5013406;28;20245;-82
2021/03/18 05:41:24;;;;;;;13.50;9.97;;;;;;;3.10;72.18;96045.84;5022153;28;20230;-83
2021/03/18 05:43:52;;;;;;;13.73;10.73;;;;;;;3.22;71.55;96050.94;5032910;28;20620;-81
2021/03/18 05:46:18;;;;;;;13.83;10.27;;;;;;;3.30;71.50;96054.47;5013622;28;20202;-83
2021/03/18 05:48:45;;;;;;;13.60;10.57;;;;;;;3.33;71.14;96044.06;5030579;28;20503;-84
2021/03/18 05:51:15;;;;;;;14.70;10.37;;;;;;;3.39;71.32;96053.78;5022589;28;20230;-83
2021/03/18 05:53:43;;;;;;;14.77;10.87;;;;;;;3.36;71.58;96048.09;5026939;28;20288;-82
2021/03/18 05:56:14;;;;;;;16.50;10.97;;;;;;;3.26;72.20;96049.78;5026195;28;20222;-83
2021/03/18 05:58:40;;;;;;;13.30;10.50;;;;;;;3.25;72.47;96056.59;5024288;28;20210;-82
2021/03/18 06:01:09;;;;;;;14.17;10.40;;;;;;;3.25;72.98;96050.69;5025364;28;20237;-82
2021/03/18 06:03:35;;;;;;;14.63;10.90;;;;;;;3.22;72.79;96054.28;5024626;28;20222;-81
2021/03/18 06:06:02;;;;;;;13.70;10.77;;;;;;;3.26;78.50;96053.13;5031608;28;20253;-82
2021/03/18 06:08:29;;;;;;;13.93;10.33;;;;;;;3.61;75.51;96055.44;5030751;28;20234;-85
2021/03/18 06:10:56;;;;;;;14.47;11.20;;;;;;;3.69;72.02;96050.50;5028267;28;20194;-83
2021/03/18 06:13:22;;;;;;;13.33;10.40;;;;;;;3.68;71.23;96048.91;5027315;28;20229;-85
2021/03/18 06:15:48;;;;;;;13.50;10.90;;;;;;;3.70;71.34;96048.78;5026276;28;20221;-85
2021/03/18 06:18:15;;;;;;;14.60;11.23;;;;;;;3.71;71.34;96053.75;5029816;28;20521;-85
2021/03/18 06:20:48;;;;;;;16.00;10.97;;;;;;;3.61;71.37;96049.53;5012578;28;20218;-86
2021/03/18 06:23:14;;;;;;;14.83;11.47;;;;;;;3.54;72.60;96049.19;5045170;28;20236;-84
2021/03/18 06:25:40;;;;;;;16.50;11.97;;;;;;;3.45;73.47;96055.84;5024300;28;20191;-84
2021/03/18 06:28:12;;;;;;;15.17;11.93;;;;;;;3.52;73.22;96047.69;5015686;28;20236;-84
2021/03/18 06:30:39;;;;;;;14.97;12.33;;;;;;;3.43;72.98;96055.16;5011818;28;20280;-81
2021/03/18 06:33:19;;;;;;;15.63;12.07;;;;;;;3.51;73.28;96057.06;5013339;28;20233;-84
2021/03/18 06:35:46;;;;;;;17.30;12.37;;;;;;;3.55;73.50;96053.34;5011916;28;20262;-82
2021/03/18 06:38:13;;;;;;;15.53;13.00;;;;;;;3.56;72.48;96054.97;5023609;28;20224;-85
2021/03/18 06:40:41;;;;;;;16.13;12.30;;;;;;;3.58;72.74;96058.22;5022917;28;20202;-83
2021/03/18 06:43:08;;;;;;;16.80;12.73;;;;;;;3.67;72.55;96044.72;5031894;28;20230;-83
2021/03/18 06:45:37;;;;;;;19.80;13.83;;;;;;;3.69;72.22;96052.25;5025516;28;20226;-80
2021/03/18 06:48:05;;;;;;;64.80;44.57;;;;;;;3.58;72.84;96049.78;5029814;28;20198;-85
2021/03/18 06:50:34;;;;;;;20.70;15.90;;;;;;;3.58;72.21;96049.78;5027264;28;20249;-84
2021/03/18 06:53:00;;;;;;;17.90;13.73;;;;;;;3.53;73.23;96059.50;5012350;28;20238;-84
2021/03/18 06:55:29;;;;;;;19.03;13.57;;;;;;;3.70;72.43;96053.88;5018261;28;20229;-83
2021/03/18 06:58:18;;;;;;;16.80;13.07;;;;;;;3.54;72.69;96051.75;5023215;28;20233;-85
2021/03/18 07:00:47;;;;;;;16.50;12.67;;;;;;;3.65;72.30;96058.53;5031037;28;20257;-85
2021/03/18 07:03:27;;;;;;;17.47;13.20;;;;;;;3.69;71.46;96053.06;5030177;28;20309;-85
2021/03/18 07:05:54;;;;;;;17.60;13.00;;;;;;;3.79;71.85;96045.50;5021911;28;20191;-83
2021/03/18 07:08:23;;;;;;;18.27;13.53;;;;;;;3.81;71.66;96051.28;5016225;28;20210;-82
2021/03/18 07:10:49;;;;;;;15.23;12.93;;;;;;;3.89;71.35;96054.00;5018450;28;20233;-84
2021/03/18 07:13:21;;;;;;;16.40;13.27;;;;;;;3.93;70.93;96054.56;5032488;28;20234;-84
2021/03/18 07:15:47;;;;;;;15.90;12.93;;;;;;;3.92;70.81;96050.41;5025689;28;20223;-82
2021/03/18 07:18:14;;;;;;;17.30;13.37;;;;;;;3.86;70.83;96053.44;5016909;28;20650;-83
2021/03/18 07:20:56;;;;;;;16.67;13.50;;;;;;;3.92;71.03;96050.41;5016590;28;20190;-83
2021/03/18 07:23:32;;;;;;;47.80;34.70;;;;;;;3.93;70.87;96046.94;5031854;28;20229;-85
2021/03/18 07:25:58;;;;;;;24.50;16.60;;;;;;;3.86;70.31;96050.88;5029728;28;20240;-82
2021/03/18 07:28:24;;;;;;;21.30;15.40;;;;;;;4.05;70.24;96049.28;5022808;28;20225;-81
2021/03/18 07:30:52;;;;;;;17.50;13.83;;;;;;;4.09;70.09;96055.75;5032072;28;20270;-82
2021/03/18 07:33:20;;;;;;;18.03;13.77;;;;;;;4.19;70.25;96047.38;5024509;28;20241;-85
2021/03/18 07:35:46;;;;;;;16.77;13.60;;;;;;;4.26;70.05;96046.72;5030947;28;20225;-84
2021/03/18 07:38:12;;;;;;;16.97;13.23;;;;;;;4.55;68.96;96054.53;5031855;28;20202;-84
2021/03/18 07:40:39;;;;;;;16.43;13.30;;;;;;;4.68;69.41;96051.75;5030672;28;20261;-84
2021/03/18 07:43:05;;;;;;;17.83;13.13;;;;;;;4.76;68.66;96051.91;5031346;28;20291;-83
2021/03/18 07:45:31;;;;;;;18.50;13.03;;;;;;;4.77;68.50;96058.63;5033889;28;20217;-83
2021/03/18 07:47:59;;;;;;;16.13;12.80;;;;;;;4.73;68.51;96065.72;5030253;28;20191;-84
2021/03/18 07:50:29;;;;;;;15.93;12.90;;;;;;;4.52;67.77;96057.31;5025889;28;20202;-83
2021/03/18 07:52:56;;;;;;;17.10;12.50;;;;;;;4.44;68.25;96052.84;5034100;28;20588;-82
2021/03/18 07:55:25;;;;;;;17.20;12.47;;;;;;;4.53;69.04;96058.13;5023315;28;20222;-85
2021/03/18 07:57:51;;;;;;;15.90;13.03;;;;;;;4.54;69.04;96057.19;5019453;28;20224;-86
2021/03/18 08:00:21;;;;;;;14.57;11.87;;;;;;;4.59;68.95;96057.63;5034843;28;20226;-83
2021/03/18 08:02:47;;;;;;;15.73;12.67;;;;;;;4.50;68.59;96057.44;5032672;28;20542;-85
2021/03/18 08:05:36;;;;;;;15.00;12.53;;;;;;;4.51;69.46;96056.50;5032808;28;20206;-85
2021/03/18 08:08:03;;;;;;;15.00;12.37;;;;;;;4.56;69.32;96058.69;5019919;28;20238;-85
2021/03/18 08:10:42;;;;;;;17.10;13.53;;;;;;;4.61;69.05;96061.66;5034346;28;20768;-82
2021/03/18 08:13:08;;;;;;;17.60;12.57;;;;;;;4.64;69.13;96055.47;5022734;28;20242;-81
2021/03/18 08:15:44;;;;;;;16.33;12.93;;;;;;;4.63;69.17;96053.84;5026463;28;20241;-85
2021/03/18 08:18:44;;;;;;;17.73;12.47;;;;;;;4.43;68.34;96055.50;5025824;28;20234;-82
2021/03/18 08:21:13;;;;;;;15.47;11.80;;;;;;;4.43;69.52;96061.41;5034068;28;20225;-81
2021/03/18 08:23:54;;;;;;;16.37;12.27;;;;;;;4.51;69.01;96059.06;5028680;28;20228;-84
2021/03/18 08:26:44;;;;;;;14.33;12.20;;;;;;;4.55;68.61;96056.25;5032359;28;20694;-83
2021/03/18 08:29:38;;;;;;;15.33;11.93;;;;;;;4.73;69.24;96054.72;5033536;28;20909;-85
2021/03/18 08:32:06;;;;;;;15.67;11.83;;;;;;;4.68;68.04;96054.28;5012441;28;20234;-86
2021/03/18 08:34:44;;;;;;;16.13;11.90;;;;;;;4.65;67.83;96057.09;5030683;28;20233;-85
2021/03/18 08:37:11;;;;;;;17.07;12.27;;;;;;;4.69;67.71;96055.91;5029929;28;20229;-82
2021/03/18 08:39:42;;;;;;;14.80;11.93;;;;;;;4.68;67.13;96051.75;5034242;28;20222;-84
2021/03/18 08:42:35;;;;;;;14.13;11.33;;;;;;;4.85;67.05;96059.59;5018327;28;20317;-83
2021/03/18 08:45:04;;;;;;;14.73;12.07;;;;;;;4.98;66.83;96058.56;5020616;28;20211;-84
2021/03/18 08:47:36;;;;;;;13.77;11.00;;;;;;;5.05;66.51;96051.97;5033063;28;20202;-83
2021/03/18 08:50:04;;;;;;;13.53;10.93;;;;;;;5.16;65.94;96047.59;5032453;28;20310;-85
2021/03/18 08:52:37;;;;;;;13.83;11.50;;;;;;;5.22;65.66;96046.25;5032741;28;20242;-82
2021/03/18 08:55:04;;;;;;;14.70;12.80;;;;;;;5.14;65.36;96049.47;5027045;28;20222;-85
2021/03/18 08:57:33;;;;;;;14.20;11.47;;;;;;;5.07;65.51;96050.91;5013056;28;20238;-85
2021/03/18 09:00:04;;;;;;;15.00;11.27;;;;;;;5.11;65.45;96057.38;5031219;28;20198;-83
2021/03/18 09:02:32;;;;;;;13.97;11.47;;;;;;;5.10;65.12;96060.06;5032945;28;20313;-85
2021/03/18 09:04:59;;;;;;;16.50;11.70;;;;;;;5.14;65.45;96056.31;5022906;28;20676;-83
2021/03/18 09:07:26;;;;;;;13.90;11.47;;;;;;;5.22;65.19;96049.59;5013002;28;20233;-84
2021/03/18 09:10:01;;;;;;;12.90;11.57;;;;;;;5.22;65.55;96047.03;5023419;28;20218;-82
2021/03/18 09:12:36;;;;;;;12.67;10.80;;;;;;;5.36;65.32;96053.53;5028750;28;20230;-83
2021/03/18 09:15:20;;;;;;;16.20;12.27;;;;;;;5.44;65.12;96052.84;5031174;28;20211;-83
2021/03/18 09:17:48;;;;;;;14.63;11.67;;;;;;;5.28;65.16;96050.81;5033125;28;20206;-83
2021/03/18 09:20:15;;;;;;;31.43;23.10;;;;;;;5.26;66.57;96047.59;5016127;28;20230;-83
2021/03/18 09:22:41;;;;;;;19.87;16.20;;;;;;;5.29;65.53;96051.63;5014479;28;20238;-82
2021/03/18 09:25:09;;;;;;;17.30;14.03;;;;;;;5.33;65.46;96051.25;5031020;28;20809;-82
2021/03/18 09:27:38;;;;;;;14.67;12.73;;;;;;;5.25;64.82;96053.63;5032134;28;20253;-83
2021/03/18 09:30:16;;;;;;;14.27;11.17;;;;;;;5.26;64.28;96054.44;5013082;28;20277;-85
2021/03/18 09:32:43;;;;;;;13.10;10.27;;;;;;;5.27;62.73;96040.75;5014578;28;20226;-83
2021/03/18 09:35:12;;;;;;;13.03;10.97;;;;;;;5.30;62.98;96045.59;5033204;28;20257;-82
2021/03/18 09:37:38;;;;;;;13.90;10.60;;;;;;;5.29;63.57;96041.41;5026060;28;20230;-83
2021/03/18 09:40:09;;;;;;;12.93;11.10;;;;;;;5.28;63.73;96045.72;5012738;28;20234;-84
2021/03/18 09:42:36;;;;;;;13.37;11.63;;;;;;;5.26;64.03;96039.94;5029911;28;20232;-85
2021/03/18 09:45:02;;;;;;;14.73;12.80;;;;;;;5.27;64.26;96038.19;5032415;28;20198;-85
2021/03/18 09:47:28;;;;;;;16.17;13.73;;;;;;;5.20;65.08;96041.25;5031368;28;20194;-82
2021/03/18 09:49:55;;;;;;;15.53;12.90;;;;;;;5.33;65.30;96035.94;5033006;28;20214;-82
2021/03/18 09:52:27;;;;;;;14.80;12.83;;;;;;;5.37;64.73;96036.47;5029787;28;20240;-82
2021/03/18 09:54:55;;;;;;;13.23;11.80;;;;;;;5.49;63.10;96030.28;5013278;28;20226;-84
2021/03/18 09:57:22;;;;;;;14.30;10.67;;;;;;;5.36;63.20;96029.75;5014797;28;20227;-82
2021/03/18 09:59:51;;;;;;;10.60;9.57;;;;;;;5.47;61.85;96021.94;5031161;28;20209;-82
2021/03/18 10:02:18;;;;;;;11.73;8.97;;;;;;;5.53;59.71;96021.41;5027447;28;20241;-85
2021/03/18 10:04:45;;;;;;;9.43;8.37;;;;;;;5.73;60.67;96017.13;5029586;28;20252;-82
2021/03/18 10:07:12;;;;;;;9.33;8.17;;;;;;;5.94;59.81;96014.44;5025275;28;20276;-85
2021/03/18 10:09:41;;;;;;;10.57;8.73;;;;;;;6.15;59.09;96009.94;5031049;28;20684;-84
2021/03/18 10:12:09;;;;;;;10.03;8.93;;;;;;;6.31;58.15;96009.34;5030013;28;20283;-85
2021/03/18 10:14:37;;;;;;;8.97;8.07;;;;;;;6.50;57.38;95999.06;5013690;28;20683;-83
2021/03/18 10:17:07;;;;;;;9.00;8.10;;;;;;;6.50;55.79;95997.31;5031319;28;20234;-84
2021/03/18 10:19:35;;;;;;;7.93;7.13;;;;;;;6.45;54.85;95996.09;5031634;28;20214;-84
2021/03/18 10:22:04;;;;;;;9.67;8.17;;;;;;;6.44;55.65;95995.31;5017055;28;20223;-84
2021/03/18 10:24:30;;;;;;;9.70;7.77;;;;;;;6.59;55.31;95985.41;5016674;28;20276;-83
2021/03/18 10:27:06;;;;;;;10.20;7.77;;;;;;;6.61;54.95;95985.25;5032210;28;20202;-84
2021/03/18 10:29:33;;;;;;;8.37;7.57;;;;;;;6.98;55.17;95977.50;5013327;28;20253;-82
2021/03/18 10:32:08;;;;;;;8.33;7.50;;;;;;;7.21;54.39;95974.41;5014325;28;20231;-84
2021/03/18 10:34:34;;;;;;;8.10;7.30;;;;;;;7.19;54.74;95972.94;5031571;28;20229;-85
2021/03/18 10:37:00;;;;;;;7.77;6.87;;;;;;;7.18;54.91;95976.44;5029841;28;20261;-84
2021/03/18 10:39:26;;;;;;;8.67;7.53;;;;;;;7.00;53.99;95973.06;5012974;28;20237;-84
2021/03/18 10:41:54;;;;;;;11.47;7.30;;;;;;;7.26;52.91;95972.22;5013710;28;20235;-83
2021/03/18 10:44:33;;;;;;;9.37;8.33;;;;;;;7.41;52.72;95972.50;5032830;28;20290;-85
2021/03/18 10:47:19;;;;;;;6.30;5.70;;;;;;;7.28;49.63;95960.06;5030283;28;20237;-84
2021/03/18 10:49:58;;;;;;;6.17;5.57;;;;;;;7.44;49.21;95959.38;5031448;28;20226;-83
2021/03/18 10:52:26;;;;;;;6.07;5.43;;;;;;;7.51;49.58;95955.25;5031841;28;20230;-85
2021/03/18 10:54:59;;;;;;;8.07;6.77;;;;;;;7.46;50.30;95957.50;5032356;28;20221;-85
2021/03/18 10:57:28;;;;;;;6.83;6.00;;;;;;;7.37;50.31;95957.56;5028432;28;20252;-83
2021/03/18 10:59:57;;;;;;;7.20;5.93;;;;;;;7.23;49.44;95953.75;5031628;28;20670;-85
2021/03/18 11:02:30;;;;;;;7.90;6.03;;;;;;;7.10;50.14;95951.56;5032175;28;20221;-82
2021/03/18 11:05:08;;;;;;;8.70;7.00;;;;;;;6.83;50.58;95943.94;5023746;28;20225;-85
2021/03/18 11:07:33;;;;;;;7.27;6.40;;;;;;;6.68;52.06;95947.94;5030831;28;20229;-85
2021/03/18 11:10:16;;;;;;;7.93;6.60;;;;;;;6.54;53.15;95944.88;5033146;28;20235;-83
2021/03/18 11:12:55;;;;;;;7.07;6.37;;;;;;;6.46;53.13;95946.56;5021743;28;20301;-83
2021/03/18 11:15:22;;;;;;;8.57;6.67;;;;;;;6.43;53.47;95951.97;5012305;28;20343;-80
2021/03/18 11:18:03;;;;;;;8.80;7.60;;;;;;;6.34;53.04;95943.41;5012789;28;20194;-84
2021/03/18 11:20:34;;;;;;;13.43;11.33;;;;;;;6.29;53.98;95934.53;5012419;28;20698;-85
2021/03/18 11:23:03;;;;;;;9.23;7.83;;;;;;;6.22;55.04;95939.41;5028817;28;20233;-85
2021/03/18 11:25:30;;;;;;;9.40;7.87;;;;;;;6.24;55.37;95934.94;5030791;28;20229;-83
2021/03/18 11:27:56;;;;;;;8.83;7.80;;;;;;;6.26;56.10;95937.38;5022129;28;20249;-83
2021/03/18 11:30:34;;;;;;;9.17;7.57;;;;;;;6.33;55.62;95936.69;5012642;28;20222;-82
2021/03/18 11:33:13;;;;;;;11.27;7.63;;;;;;;6.36;56.00;95933.81;5031558;28;20244;-84
2021/03/18 11:35:40;;;;;;;8.17;7.27;;;;;;;6.22;54.51;95929.16;5029250;28;20217;-81
2021/03/18 11:38:06;;;;;;;10.17;7.60;;;;;;;6.02;54.39;95922.53;5020311;28;20222;-82
2021/03/18 11:40:35;;;;;;;7.93;7.13;;;;;;;6.39;53.46;95918.19;5027490;28;20218;-81
2021/03/18 11:43:02;;;;;;;8.67;6.97;;;;;;;6.87;52.92;95917.09;5018904;28;20235;-85
2021/03/18 11:45:32;;;;;;;8.47;7.20;;;;;;;7.36;53.67;95910.66;5011540;28;20230;-84